Relevés horaires Beauvechain (Belgique)


Relevés horaires à Beauvechain - Dimanche 26 Mars 2017
Heure UTC1 Température [°C] Vent [km/h] Hum. [%] Pres.4 [hPa] Visi. [Km] Nébu. [octa] Préc.5 [mm] Cond.
2m. Res. Ros. Dir.2 Vit. Moy. Raf.3
23:00 7.8 7.8 2.6 E 3.7 -- 5.6 70 1023.7(0.0/3h) 16 -- -- --
22:00 8.6 8.6 2.6 E 3.7 -- 7.4 66 1023.6(0.1/3h) 17 -- -- --
21:00 8.5 8.5 3.1 ENE 3.7 7.4 11.1 69 1023.8(0.6/3h) 18 -- -- --
20:00 8.6 7.5 3.5 ENE 7.4 -- 11.1 70 1023.7(0.9/3h) 14 -- -- --
19:00 9.6 8.7 3.6 ENE 7.4 -- 9.3 66 1023.3(0.7/3h) 14 -- -- --
18:00 11.6 11 3.7 NE 7.4 -- 14.8 58 1023(0.2/3h) 15 -- -- --
17:00 13.5 12.9 2.9 NE 9.3 -- 13.0 49 1022.5(-0.2/3h) 19 -- -- --
16:00 14.8 14.5 0.5 NE 9.3 -- 14.8 38 1022.2(-0.9/3h) 20 -- -- --
15:00 15.1 14.8 0.9 ENE 9.3 9.3 13.0 38 1022.5(-1.2/3h) 20 -- -- --
14:00 14.6 14.6 1.5 ENE 5.6 -- 11.1 41 1022.7(-1.4/3h) 20 -- -- --
13:00 13.8 13.6 2.6 NE 7.4 -- 13.0 47 1023.2(-0.9/3h) 20 -- -- --
12:00 12.2 11.7 3.5 ENE 7.4 -- 14.8 55 1023.8(-0.4/3h) 19 -- -- --
11:00 11.1 10.4 3.9 ENE 7.4 -- 14.8 61 1024.2(0.2/3h) 18 -- -- --
10:00 9.4 8.4 4.1 ENE 7.4 -- 13.0 69 1024.5(0.2/3h) 14 -- -- --
09:00 8.3 6.4 3.9 NE 11.1 11.1 13.0 74 1024.5(0.4/3h) 16 -- -- --
08:00 6.6 5.2 3.3 ENE 7.4 -- 11.1 79 1024.2(0.1/3h) 20 -- -- --
07:00 4.7 3.5 2.6 ENE 5.6 -- 9.3 86 1024.5(0.4/3h) 13 -- -- --
06:00 3.6 2.3 2.0 ENE 5.6 -- 11.1 89 1024.4(0.7/3h) 15 -- -- --
04:00 4.4 3.2 0.8 ENE 5.6 -- 11.1 77 1024.2(0.0/3h) 20 -- -- --
03:00 5.0 3.3 -- ENE 7.4 9.3 11.1 -- 1023.7(-0.6/3h) 20 -- -- --
03:00 5.0 3.3 -- ENE 7.4 9.3 11.1 -- 1023.7(-0.6/3h) 20 -- -- --
03:00 5.0 3.3 -- ENE 7.4 9.3 11.1 -- 1023.7(-0.6/3h) 20 -- -- --
03:00 5.0 3.3 -- ENE 7.4 9.3 11.1 -- 1023.7(-0.6/3h) 20 -- -- --
03:00 5.0 3.3 -- ENE 7.4 9.3 11.1 -- 1023.7(-0.6/3h) 20 -- -- --

1 Coordinated Universal Time. Actuellement il est 18:00 locale et 16:00 UTC.

2 Le vent souffle depuis la direction indiquée vers la direction oposée.

3 Les rafales max. sont disponible 40 min après l'heure du relevé.

4 Pour les stations d'altitude (plus de 600m) le géopotentiel du niveau le plus proche de la pression obligatoire est indiqué.

5 Les stations disposant d'un diffuseur peuvent indiquer "trace". Cela signifie que des précipitations ont touchés le sol mais que la quantité est inférieure à 0.1 mm.

Récapitulatif de la journée
Température [°C] Vent [km/h] Ensoleillement4 [h] Precipitations totale5 [mm] Pression [Hpa]
Min1 Max.2 Moy.3 Max. Min Max.
3.4 15.3 9.3 14.8 0 h 0 min 0 1022.2 1024.5

1 Température minimale relevée entre 18:00 UTC la veille et 18:00 UTC le jour donné.

2 Température maximale relevée entre 06:00 UTC le jour donné et 06:00 UTC le lendemain.

3 Vent moyen de la journée basé sur les relevés horaires.

4 Ensoleillement en heures relevé entre 06:00 UTC la veille et 06:00 UTC le jour donné.

5 Précipitations totales tombées entre 06:00 UTC la jour donné et 06:00 UTC le lendemain.

Graphiques horaires